createdAt,value
2018-09-10T00:03:31.308Z,3.47
2018-09-10T00:08:33.839Z,2.30
2018-09-10T00:13:36.379Z,2.27
2018-09-10T00:18:38.934Z,5.53
2018-09-10T00:23:41.455Z,6.93
2018-09-10T00:28:43.987Z,3.17
2018-09-10T00:33:46.533Z,4.30
2018-09-10T00:38:49.042Z,2.37
2018-09-10T00:43:51.581Z,2.97
2018-09-10T00:48:54.168Z,3.43
2018-09-10T00:53:56.712Z,2.80
2018-09-10T00:58:59.260Z,3.90
2018-09-10T01:04:01.806Z,2.70
2018-09-10T01:09:06.603Z,3.03
2018-09-10T01:14:09.133Z,3.13
2018-09-10T01:19:11.662Z,2.37
2018-09-10T01:24:14.199Z,2.70
2018-09-10T01:29:16.744Z,5.37
2018-09-10T01:34:25.012Z,2.93
2018-09-10T01:39:27.539Z,2.37
2018-09-10T01:44:30.060Z,2.67
2018-09-10T01:49:32.731Z,4.67
2018-09-10T01:54:35.256Z,3.60
2018-09-10T01:59:37.782Z,2.80
2018-09-10T02:04:40.312Z,2.57
2018-09-10T02:09:42.874Z,2.57
2018-09-10T02:14:45.400Z,6.60
2018-09-10T02:19:47.900Z,5.90
2018-09-10T02:24:50.858Z,4.37
2018-09-10T02:29:53.363Z,3.40
2018-09-10T02:34:55.914Z,3.53
2018-09-10T02:39:58.506Z,4.10
2018-09-10T02:45:01.059Z,3.30
2018-09-10T02:50:03.724Z,4.60
2018-09-10T02:55:06.319Z,5.83
2018-09-10T03:00:09.340Z,4.17
2018-09-10T03:05:11.859Z,3.80
2018-09-10T03:10:14.355Z,5.53
2018-09-10T03:15:16.885Z,5.30
2018-09-10T03:20:19.528Z,3.40
2018-09-10T03:25:22.079Z,3.63
2018-09-10T03:30:24.623Z,4.77
2018-09-10T03:35:27.151Z,7.80
2018-09-10T03:40:29.661Z,3.20
2018-09-10T03:45:32.173Z,3.57
2018-09-10T03:50:34.812Z,3.93
2018-09-10T03:55:37.360Z,4.90
2018-09-10T04:00:39.911Z,4.23
2018-09-10T04:05:42.411Z,4.80
2018-09-10T04:10:44.928Z,4.17
2018-09-10T04:15:47.457Z,6.10
2018-09-10T04:20:50.796Z,4.00
2018-09-10T04:25:53.341Z,4.23
2018-09-10T04:30:55.824Z,4.67
2018-09-10T04:35:58.392Z,5.30
2018-09-10T04:41:00.936Z,4.57
2018-09-10T04:46:03.491Z,5.03
2018-09-10T04:51:06.026Z,4.90
2018-09-10T04:56:08.539Z,6.30
2018-09-10T05:01:11.120Z,6.30
2018-09-10T05:06:13.633Z,6.87
2018-09-10T05:11:16.154Z,8.90
2018-09-10T05:16:18.674Z,8.07
2018-09-10T05:21:21.183Z,4.43
2018-09-10T05:26:23.715Z,12.57
2018-09-10T05:31:26.143Z,11.10
2018-09-10T05:36:28.670Z,5.70
2018-09-10T05:41:31.192Z,8.03
2018-09-10T05:46:33.764Z,6.77
2018-09-10T05:51:36.295Z,6.80
2018-09-10T05:56:38.833Z,20.57
2018-09-10T06:01:41.363Z,15.63
2018-09-10T06:06:44.476Z,19.33
2018-09-10T06:11:47.007Z,15.03
2018-09-10T06:16:49.588Z,17.40
2018-09-10T06:21:52.231Z,19.93
2018-09-10T06:26:54.768Z,19.60
2018-09-10T06:31:58.905Z,20.67
2018-09-10T06:37:01.566Z,27.33
2018-09-10T06:42:04.038Z,18.57
2018-09-10T06:47:06.617Z,6.83
2018-09-10T06:52:09.158Z,9.30
2018-09-10T06:57:11.759Z,7.13
2018-09-10T07:02:14.262Z,8.63
2018-09-10T07:07:16.777Z,10.90
2018-09-10T07:12:19.331Z,13.83
2018-09-10T07:17:21.848Z,19.07
2018-09-10T07:22:24.354Z,20.60
2018-09-10T07:27:26.877Z,12.43
2018-09-10T07:32:29.424Z,13.43
2018-09-10T07:37:31.975Z,11.80
2018-09-10T07:42:34.554Z,13.30
2018-09-10T07:47:37.070Z,11.30
2018-09-10T07:52:39.591Z,8.40
2018-09-10T07:57:42.107Z,11.33
2018-09-10T08:02:44.603Z,7.27
2018-09-10T08:07:47.114Z,12.50
2018-09-10T08:12:49.639Z,7.63
2018-09-10T08:17:52.148Z,7.93
2018-09-10T08:22:54.719Z,10.97
2018-09-10T08:27:57.290Z,6.27
2018-09-10T08:32:59.882Z,6.63
2018-09-10T08:38:02.426Z,7.60
2018-09-10T08:43:05.519Z,9.43
2018-09-10T08:48:08.186Z,9.80
2018-09-10T08:53:10.734Z,8.23
2018-09-10T08:58:13.276Z,6.23
2018-09-10T09:03:15.804Z,9.27
2018-09-10T09:08:18.340Z,5.03
2018-09-10T09:13:20.971Z,4.47
2018-09-10T09:18:23.488Z,3.00
2018-09-10T09:23:26.148Z,5.43
2018-09-10T09:28:28.647Z,5.57
2018-09-10T09:33:31.171Z,7.10
2018-09-10T09:38:39.258Z,8.60
2018-09-10T09:43:47.368Z,3.57
2018-09-10T09:48:49.906Z,2.57
2018-09-10T09:53:52.450Z,2.50
2018-09-10T09:58:55.099Z,5.97
2018-09-10T10:04:02.194Z,3.17
2018-09-10T10:09:11.135Z,5.03
2018-09-10T10:14:13.647Z,1.80
2018-09-10T10:19:16.191Z,4.33
2018-09-10T10:24:18.694Z,2.55
2018-09-10T10:29:21.220Z,1.98
2018-09-10T10:34:23.753Z,3.60
2018-09-10T10:39:26.303Z,2.98
2018-09-10T10:44:28.834Z,2.75
2018-09-10T10:49:31.355Z,1.53
2018-09-10T10:54:33.899Z,2.73
2018-09-10T10:59:36.555Z,2.00
2018-09-10T11:04:40.012Z,4.75
2018-09-10T11:09:42.554Z,1.80
2018-09-10T11:14:45.078Z,1.10
2018-09-10T11:19:47.783Z,2.87
2018-09-10T11:24:50.293Z,2.02
2018-09-10T11:29:52.811Z,2.65
2018-09-10T11:34:56.132Z,2.65
2018-09-10T11:39:58.724Z,5.17
2018-09-10T11:45:01.363Z,2.17
2018-09-10T11:50:04.081Z,1.60
2018-09-10T11:55:06.628Z,2.55
2018-09-10T12:00:09.186Z,1.65
2018-09-10T12:05:11.814Z,2.65
2018-09-10T12:10:14.385Z,3.02
2018-09-10T12:15:16.956Z,2.72
2018-09-10T12:20:19.513Z,2.98
2018-09-10T12:25:22.063Z,3.67
2018-09-10T12:30:24.597Z,2.17
2018-09-10T12:35:27.137Z,2.08
2018-09-10T12:40:29.698Z,2.02
2018-09-10T12:45:32.245Z,1.95
2018-09-10T12:50:34.786Z,2.10
2018-09-10T12:55:38.091Z,3.40
2018-09-10T13:00:40.620Z,2.98
2018-09-10T13:05:43.136Z,3.08
2018-09-10T13:10:45.832Z,2.37
2018-09-10T13:15:48.322Z,1.82
2018-09-10T13:20:50.860Z,1.92
2018-09-10T13:25:53.459Z,2.27
2018-09-10T13:30:55.989Z,2.00
2018-09-10T13:35:59.093Z,3.55
2018-09-10T13:41:01.855Z,1.87
2018-09-10T13:46:04.410Z,2.10
2018-09-10T13:51:06.980Z,2.08
2018-09-10T13:56:09.558Z,2.00
2018-09-10T14:01:12.103Z,3.35
2018-09-10T14:06:14.683Z,2.05
2018-09-10T14:11:17.206Z,2.65
2018-09-10T14:16:19.748Z,1.90
2018-09-10T14:21:22.292Z,2.85
2018-09-10T14:26:24.814Z,2.40
2018-09-10T14:31:27.442Z,3.90
2018-09-10T14:36:29.964Z,2.98
2018-09-10T14:41:32.502Z,2.33
2018-09-10T14:46:35.055Z,2.00
2018-09-10T14:51:38.101Z,2.55
2018-09-10T14:56:40.694Z,2.60
2018-09-10T15:01:43.208Z,2.35
2018-09-10T15:06:45.747Z,2.98
2018-09-10T15:11:48.291Z,2.75
2018-09-10T15:16:50.874Z,3.35
2018-09-10T15:21:53.534Z,3.25
2018-09-10T15:26:56.114Z,2.60
2018-09-10T15:31:59.318Z,4.10
2018-09-10T15:37:01.864Z,3.25
2018-09-10T15:42:04.947Z,4.25
2018-09-10T15:47:07.531Z,2.62
2018-09-10T15:52:10.115Z,4.37
2018-09-10T15:57:12.674Z,4.28
2018-09-10T16:02:15.823Z,5.33
2018-09-10T16:07:18.899Z,4.08
2018-09-10T16:12:21.405Z,2.77
2018-09-10T16:17:23.934Z,4.42
2018-09-10T16:22:26.478Z,4.53
2018-09-10T16:27:29.058Z,5.22
2018-09-10T16:32:31.570Z,4.73
2018-09-10T16:37:34.151Z,3.13
2018-09-10T16:42:36.726Z,4.33
2018-09-10T16:47:39.295Z,7.30
2018-09-10T16:52:41.975Z,3.53
2018-09-10T16:57:44.534Z,4.67
2018-09-10T17:02:47.482Z,4.53
2018-09-10T17:07:50.015Z,4.17
2018-09-10T17:12:52.622Z,4.00
2018-09-10T17:17:55.174Z,4.43
2018-09-10T17:22:57.784Z,7.10
2018-09-10T17:28:00.328Z,6.20
2018-09-10T17:33:02.895Z,9.87
2018-09-10T17:38:05.489Z,4.10
2018-09-10T17:43:08.149Z,4.70
2018-09-10T17:48:10.713Z,5.97
2018-09-10T17:53:13.353Z,4.07
2018-09-10T17:58:15.971Z,7.10
2018-09-10T18:03:18.586Z,7.00
2018-09-10T18:08:21.190Z,3.43
2018-09-10T18:13:23.862Z,5.87
2018-09-10T18:18:26.488Z,6.25
2018-09-10T18:23:29.170Z,7.87
2018-09-10T18:28:31.737Z,5.00
2018-09-10T18:33:34.346Z,6.70
2018-09-10T18:38:36.986Z,8.53
2018-09-10T18:43:39.560Z,6.23
2018-09-10T18:48:42.614Z,7.00
2018-09-10T18:53:45.197Z,3.20
2018-09-10T18:58:47.820Z,4.83
2018-09-10T19:03:50.447Z,4.03
2018-09-10T19:08:52.995Z,3.93
2018-09-10T19:13:55.669Z,4.60
2018-09-10T19:18:58.324Z,3.07
2018-09-10T19:24:01.059Z,5.53
2018-09-10T19:29:04.363Z,3.00
2018-09-10T19:34:06.909Z,3.80
2018-09-10T19:39:10.571Z,5.53
2018-09-10T19:44:13.360Z,3.60
2018-09-10T19:49:15.930Z,4.57
2018-09-10T19:54:18.542Z,6.30
2018-09-10T19:59:21.379Z,3.83
2018-09-10T20:04:23.986Z,5.57
2018-09-10T20:09:26.605Z,3.23
2018-09-10T20:14:29.213Z,6.37
2018-09-10T20:19:31.804Z,3.93
2018-09-10T20:24:34.384Z,4.70
2018-09-10T20:29:36.907Z,2.97
2018-09-10T20:34:41.316Z,3.43
2018-09-10T20:39:44.053Z,3.77
2018-09-10T20:44:46.578Z,3.57
2018-09-10T20:49:49.145Z,4.10
2018-09-10T20:54:51.736Z,4.00
2018-09-10T20:59:54.307Z,5.03
2018-09-10T21:04:56.887Z,5.20
2018-09-10T21:09:59.435Z,4.53
2018-09-10T21:15:02.028Z,7.53
2018-09-10T21:20:04.676Z,4.57
2018-09-10T21:25:07.294Z,3.63
2018-09-10T21:30:09.860Z,3.00
2018-09-10T21:35:12.379Z,4.17
2018-09-10T21:40:15.660Z,3.23
2018-09-10T21:45:18.227Z,2.97
2018-09-10T21:50:20.784Z,3.20
2018-09-10T21:55:23.453Z,7.03
2018-09-10T22:00:26.421Z,5.10
2018-09-10T22:05:29.065Z,4.10
2018-09-10T22:10:31.615Z,4.40
2018-09-10T22:15:34.255Z,3.47
2018-09-10T22:20:36.778Z,3.87
2018-09-10T22:25:39.596Z,4.80
2018-09-10T22:30:42.154Z,5.17
2018-09-10T22:35:44.655Z,6.17
2018-09-10T22:40:47.188Z,4.03
2018-09-10T22:45:49.822Z,7.27
2018-09-10T22:50:52.354Z,3.87
2018-09-10T22:55:54.914Z,4.63
2018-09-10T23:00:57.402Z,3.30
2018-09-10T23:05:59.944Z,3.23
2018-09-10T23:11:02.486Z,4.23
2018-09-10T23:16:05.700Z,6.07
2018-09-10T23:21:08.231Z,4.10
2018-09-10T23:26:10.767Z,3.50
2018-09-10T23:31:13.305Z,5.63
2018-09-10T23:36:15.827Z,2.97
2018-09-10T23:41:18.406Z,4.03
2018-09-10T23:46:20.985Z,4.10
2018-09-10T23:51:23.504Z,3.80
2018-09-10T23:56:26.064Z,3.73
